createdAt,value
2019-05-09T00:00:43.944Z,68.29
2019-05-09T00:03:13.784Z,67.85
2019-05-09T00:05:44.105Z,68.28
2019-05-09T00:08:13.885Z,68.37
2019-05-09T00:10:45.003Z,68.42
2019-05-09T00:13:13.827Z,69.75
2019-05-09T00:15:43.640Z,69.39
2019-05-09T00:18:14.210Z,69.39
2019-05-09T00:20:50.755Z,68.67
2019-05-09T00:23:19.432Z,70.37
2019-05-09T00:25:48.110Z,69.76
2019-05-09T00:28:16.797Z,70.19
2019-05-09T00:30:59.001Z,69.01
2019-05-09T00:33:34.346Z,70.41
2019-05-09T00:36:04.123Z,72.41
2019-05-09T00:38:40.880Z,70.96
2019-05-09T00:41:11.012Z,70.43
2019-05-09T00:43:43.517Z,71.27
2019-05-09T00:46:16.249Z,72.42
2019-05-09T00:48:54.255Z,72.98
2019-05-09T00:51:23.378Z,72.48
2019-05-09T00:53:53.705Z,71.80
2019-05-09T00:56:23.970Z,71.25
2019-05-09T00:58:53.682Z,71.45
2019-05-09T01:01:24.048Z,71.75
2019-05-09T01:03:53.653Z,71.31
2019-05-09T01:06:23.954Z,71.55
2019-05-09T01:08:53.800Z,72.00
2019-05-09T01:11:24.237Z,71.56
2019-05-09T01:13:54.302Z,71.78
2019-05-09T01:16:24.290Z,71.98
2019-05-09T01:18:54.626Z,72.34
2019-05-09T01:21:24.139Z,72.39
2019-05-09T01:23:53.921Z,72.87
2019-05-09T01:26:23.997Z,74.23
2019-05-09T01:28:53.860Z,73.43
2019-05-09T01:31:24.076Z,72.52
2019-05-09T01:34:04.156Z,72.26
2019-05-09T01:36:50.895Z,71.99
2019-05-09T01:39:19.593Z,72.42
2019-05-09T01:41:48.259Z,72.78
2019-05-09T01:44:17.042Z,73.67
2019-05-09T01:46:45.698Z,73.67
2019-05-09T01:49:14.629Z,72.72
2019-05-09T01:51:44.482Z,72.78
2019-05-09T01:54:14.384Z,72.79
2019-05-09T01:56:43.177Z,73.88
2019-05-09T01:59:13.721Z,73.32
2019-05-09T02:01:43.473Z,72.76
2019-05-09T02:04:13.763Z,72.93
2019-05-09T02:06:44.058Z,73.17
2019-05-09T02:09:14.024Z,73.42
2019-05-09T02:11:45.618Z,73.21
2019-05-09T02:14:15.299Z,73.53
2019-05-09T02:16:48.291Z,74.11
2019-05-09T02:19:18.551Z,73.56
2019-05-09T02:21:47.232Z,73.61
2019-05-09T02:24:15.935Z,73.73
2019-05-09T02:26:44.623Z,73.72
2019-05-09T02:29:13.984Z,73.69
2019-05-09T02:31:44.554Z,73.56
2019-05-09T02:34:14.797Z,73.43
2019-05-09T02:36:43.693Z,73.62
2019-05-09T02:39:12.431Z,73.81
2019-05-09T02:41:58.939Z,73.77
2019-05-09T02:44:11.509Z,73.45
2019-05-09T02:46:41.741Z,73.08
2019-05-09T02:49:10.433Z,72.65
2019-05-09T02:51:39.130Z,72.46
2019-05-09T02:54:09.871Z,73.12
2019-05-09T02:56:38.644Z,73.09
2019-05-09T02:59:09.822Z,72.47
2019-05-09T03:01:49.256Z,72.43
2019-05-09T03:04:18.921Z,72.63
2019-05-09T03:06:49.251Z,72.40
2019-05-09T03:09:19.044Z,72.84
2019-05-09T03:11:48.786Z,72.49
2019-05-09T03:14:19.402Z,72.54
2019-05-09T03:16:49.112Z,72.70
2019-05-09T03:19:19.418Z,71.49
2019-05-09T03:21:53.010Z,70.83
2019-05-09T03:24:21.680Z,70.51
2019-05-09T03:26:51.920Z,69.86
2019-05-09T03:29:25.151Z,69.95
2019-05-09T03:31:54.518Z,69.53
2019-05-09T03:34:23.204Z,69.27
2019-05-09T03:36:50.567Z,69.29
2019-05-09T03:39:19.248Z,69.29
2019-05-09T03:41:48.712Z,69.29
2019-05-09T03:44:18.025Z,67.88
2019-05-09T03:46:48.569Z,67.43
2019-05-09T03:49:18.826Z,67.43
2019-05-09T03:51:48.191Z,67.60
2019-05-09T03:54:18.406Z,67.60
2019-05-09T03:57:05.097Z,68.53
2019-05-09T03:59:33.818Z,67.99
2019-05-09T04:02:02.557Z,68.56
2019-05-09T04:04:31.220Z,69.65
2019-05-09T04:06:59.892Z,68.37
2019-05-09T04:09:28.712Z,68.03
2019-05-09T04:11:58.344Z,67.61
2019-05-09T04:14:29.356Z,67.36
2019-05-09T04:16:59.499Z,67.17
2019-05-09T04:19:28.175Z,66.94
2019-05-09T04:21:57.606Z,66.60
2019-05-09T04:24:28.068Z,66.23
2019-05-09T04:26:58.604Z,66.25
2019-05-09T04:29:28.573Z,66.05
2019-05-09T04:31:57.679Z,66.70
2019-05-09T04:34:27.530Z,65.61
2019-05-09T04:36:57.616Z,65.40
2019-05-09T04:39:28.318Z,65.34
2019-05-09T04:42:03.458Z,65.14
2019-05-09T04:44:32.819Z,64.84
2019-05-09T04:47:03.548Z,65.28
2019-05-09T04:49:39.240Z,65.45
2019-05-09T04:52:02.376Z,65.53
2019-05-09T04:54:31.069Z,65.34
2019-05-09T04:56:59.726Z,64.83
2019-05-09T04:59:28.582Z,64.46
2019-05-09T05:01:58.863Z,64.48
2019-05-09T05:04:28.243Z,64.20
2019-05-09T05:06:58.558Z,63.29
2019-05-09T05:09:27.865Z,63.27
2019-05-09T05:11:57.931Z,63.16
2019-05-09T05:14:28.624Z,62.24
2019-05-09T05:17:06.725Z,61.82
2019-05-09T05:19:31.157Z,61.29
2019-05-09T05:22:00.034Z,61.45
2019-05-09T05:24:30.280Z,61.08
2019-05-09T05:26:58.995Z,59.95
2019-05-09T05:29:28.239Z,58.48
2019-05-09T05:31:59.015Z,57.77
2019-05-09T05:34:35.067Z,56.93
2019-05-09T05:37:03.866Z,56.10
2019-05-09T05:39:32.527Z,56.34
2019-05-09T05:42:01.428Z,56.10
2019-05-09T05:44:30.097Z,56.68
2019-05-09T05:47:07.750Z,56.60
2019-05-09T05:49:38.497Z,56.29
2019-05-09T05:52:08.079Z,56.08
2019-05-09T05:54:37.835Z,53.94
2019-05-09T05:57:10.451Z,53.29
2019-05-09T05:59:41.017Z,51.30
2019-05-09T06:02:09.653Z,50.03
2019-05-09T06:04:38.452Z,49.62
2019-05-09T06:07:08.062Z,48.92
2019-05-09T06:09:37.936Z,48.19
2019-05-09T06:12:08.237Z,47.65
2019-05-09T06:14:37.916Z,48.89
2019-05-09T06:17:08.715Z,47.36
2019-05-09T06:19:38.039Z,45.92
2019-05-09T06:22:08.138Z,44.90
2019-05-09T06:24:38.669Z,45.41
2019-05-09T06:27:10.167Z,44.99
2019-05-09T06:29:38.785Z,46.40
2019-05-09T06:32:08.165Z,45.50
2019-05-09T06:34:41.783Z,46.26
2019-05-09T06:37:08.969Z,47.30
2019-05-09T06:39:38.280Z,47.61
2019-05-09T06:42:08.928Z,47.56
2019-05-09T06:44:45.033Z,47.31
2019-05-09T06:47:15.304Z,47.17
2019-05-09T06:49:45.597Z,46.44
2019-05-09T06:52:14.283Z,45.35
2019-05-09T06:54:42.953Z,44.35
2019-05-09T06:57:11.672Z,42.44
2019-05-09T06:59:42.910Z,41.97
2019-05-09T07:02:13.159Z,41.07
2019-05-09T07:04:43.500Z,41.10
2019-05-09T07:07:17.652Z,39.87
2019-05-09T07:09:54.347Z,39.36
2019-05-09T07:12:23.028Z,39.28
2019-05-09T07:14:51.729Z,39.34
2019-05-09T07:17:20.582Z,37.94
2019-05-09T07:19:49.504Z,36.51
2019-05-09T07:22:22.702Z,35.61
2019-05-09T07:25:10.906Z,35.67
2019-05-09T07:27:40.267Z,36.17
2019-05-09T07:30:18.063Z,37.16
2019-05-09T07:32:48.636Z,38.26
2019-05-09T07:35:18.551Z,40.17
2019-05-09T07:37:48.746Z,39.17
2019-05-09T07:40:18.210Z,39.47
2019-05-09T07:42:48.024Z,40.51
2019-05-09T07:45:17.871Z,38.41
2019-05-09T07:47:47.870Z,37.59
2019-05-09T07:50:18.966Z,35.99
2019-05-09T07:52:48.012Z,36.08
2019-05-09T07:55:18.118Z,34.78
2019-05-09T07:57:54.649Z,35.64
2019-05-09T08:00:20.358Z,36.16
2019-05-09T08:02:50.545Z,37.71
2019-05-09T08:05:28.065Z,38.23
2019-05-09T08:07:58.624Z,38.11
2019-05-09T08:10:30.566Z,38.31
2019-05-09T08:12:58.687Z,36.39
2019-05-09T08:15:28.217Z,35.67
2019-05-09T08:17:59.048Z,34.11
2019-05-09T08:20:27.892Z,34.11
2019-05-09T08:23:01.469Z,32.62
2019-05-09T08:25:27.901Z,32.91
2019-05-09T08:27:58.797Z,34.84
2019-05-09T08:30:35.568Z,33.49
2019-05-09T08:32:59.938Z,34.56
2019-05-09T08:35:28.479Z,34.22
2019-05-09T08:37:58.403Z,32.66
2019-05-09T08:40:28.491Z,32.66
2019-05-09T08:42:58.906Z,31.96
2019-05-09T08:45:31.293Z,32.84
2019-05-09T08:47:58.481Z,32.70
2019-05-09T08:50:35.109Z,32.67
2019-05-09T08:53:04.009Z,31.86
2019-05-09T08:55:32.705Z,30.86
2019-05-09T08:58:01.512Z,30.22
2019-05-09T09:00:30.391Z,32.43
2019-05-09T09:02:59.322Z,32.80
2019-05-09T09:05:28.842Z,32.99
2019-05-09T09:07:58.087Z,32.56
2019-05-09T09:10:29.155Z,32.36
2019-05-09T09:12:58.066Z,31.83
2019-05-09T09:15:50.017Z,32.91
2019-05-09T09:17:57.998Z,33.74
2019-05-09T09:20:28.757Z,33.97
2019-05-09T09:22:58.315Z,33.96
2019-05-09T09:25:28.705Z,33.13
2019-05-09T09:27:58.348Z,33.48
2019-05-09T09:30:29.286Z,33.84
2019-05-09T09:32:58.766Z,34.29
2019-05-09T09:35:27.994Z,34.00
2019-05-09T09:37:57.993Z,33.60
2019-05-09T09:40:27.885Z,32.17
2019-05-09T09:42:58.202Z,30.86
2019-05-09T09:45:28.187Z,30.09
2019-05-09T09:47:59.282Z,29.09
2019-05-09T09:50:28.107Z,29.07
2019-05-09T09:52:58.721Z,30.31
2019-05-09T09:55:27.959Z,31.30
2019-05-09T09:57:57.771Z,33.20
2019-05-09T10:00:53.725Z,34.32
2019-05-09T10:03:23.593Z,34.64
2019-05-09T10:05:52.291Z,34.92
2019-05-09T10:08:21.110Z,35.58
2019-05-09T10:10:49.989Z,36.84
2019-05-09T10:13:18.760Z,39.03
2019-05-09T10:15:49.117Z,39.03
2019-05-09T10:18:32.286Z,39.10
2019-05-09T10:21:05.626Z,38.88
2019-05-09T10:23:34.350Z,38.96
2019-05-09T10:26:03.115Z,39.49
2019-05-09T10:28:31.827Z,39.30
2019-05-09T10:31:00.707Z,38.42
2019-05-09T10:33:29.449Z,38.42
2019-05-09T10:36:04.368Z,38.14
2019-05-09T10:38:28.720Z,37.67
2019-05-09T10:41:01.114Z,36.62
2019-05-09T10:43:37.945Z,36.18
2019-05-09T10:46:20.960Z,36.00
2019-05-09T10:48:54.305Z,35.94
2019-05-09T10:51:22.985Z,35.74
2019-05-09T10:53:51.719Z,36.50
2019-05-09T10:56:21.092Z,36.27
2019-05-09T10:58:49.792Z,35.71
2019-05-09T11:01:18.781Z,36.02
2019-05-09T11:03:48.490Z,35.53
2019-05-09T11:06:18.319Z,35.96
2019-05-09T11:08:47.858Z,36.19
2019-05-09T11:11:18.381Z,38.14
2019-05-09T11:13:48.178Z,39.35
2019-05-09T11:16:18.371Z,39.22
2019-05-09T11:18:48.211Z,38.49
2019-05-09T11:21:19.336Z,39.00
2019-05-09T11:23:49.058Z,38.64
2019-05-09T11:26:18.316Z,38.80
2019-05-09T11:28:47.460Z,39.24
2019-05-09T11:31:18.509Z,39.85
2019-05-09T11:33:48.565Z,40.13
2019-05-09T11:36:20.582Z,40.33
2019-05-09T11:38:49.585Z,40.35
2019-05-09T11:41:19.667Z,42.22
2019-05-09T11:43:48.853Z,42.22
2019-05-09T11:46:18.194Z,42.64
2019-05-09T11:48:47.258Z,41.89
2019-05-09T11:51:20.363Z,41.99
2019-05-09T11:53:48.639Z,42.11
2019-05-09T11:56:18.310Z,41.86
2019-05-09T11:58:48.145Z,42.07
2019-05-09T12:01:18.985Z,42.43
2019-05-09T12:03:51.595Z,42.51
2019-05-09T12:06:20.618Z,43.24
2019-05-09T12:08:49.612Z,42.99
2019-05-09T12:11:19.043Z,43.47
2019-05-09T12:13:48.793Z,43.76
2019-05-09T12:16:18.651Z,44.02
2019-05-09T12:18:48.745Z,44.97
2019-05-09T12:21:19.155Z,45.23
2019-05-09T12:23:49.121Z,45.86
2019-05-09T12:26:18.421Z,46.28
2019-05-09T12:28:48.335Z,46.31
2019-05-09T12:31:18.224Z,45.65
2019-05-09T12:33:48.337Z,45.07
2019-05-09T12:36:19.160Z,45.76
2019-05-09T12:38:49.907Z,46.74
2019-05-09T12:41:19.243Z,44.35
2019-05-09T12:43:48.248Z,42.97
2019-05-09T12:46:16.939Z,44.62
2019-05-09T12:48:47.965Z,44.64
2019-05-09T12:51:18.413Z,45.88
2019-05-09T12:53:48.793Z,46.09
2019-05-09T12:56:18.775Z,46.60
2019-05-09T12:58:47.796Z,49.18
2019-05-09T13:01:18.857Z,51.52
2019-05-09T13:03:48.503Z,52.13
2019-05-09T13:06:20.054Z,51.52
2019-05-09T13:08:48.192Z,51.73
2019-05-09T13:11:18.762Z,52.96
2019-05-09T13:13:48.018Z,52.89
2019-05-09T13:16:18.479Z,53.47
2019-05-09T13:19:06.624Z,53.22
2019-05-09T13:21:38.358Z,53.01
2019-05-09T13:24:08.431Z,52.49
2019-05-09T13:26:38.497Z,52.17
2019-05-09T13:29:08.087Z,50.50
2019-05-09T13:31:39.147Z,49.35
2019-05-09T13:34:08.146Z,48.10
2019-05-09T13:36:37.070Z,46.39
2019-05-09T13:39:08.989Z,45.20
2019-05-09T13:41:39.254Z,44.66
2019-05-09T13:44:13.314Z,44.63
2019-05-09T13:46:43.162Z,42.56
2019-05-09T13:49:15.527Z,42.21
2019-05-09T13:51:51.398Z,41.75
2019-05-09T13:54:14.625Z,41.67
2019-05-09T13:56:43.425Z,41.01
2019-05-09T13:59:12.252Z,41.01
2019-05-09T14:01:41.051Z,40.83
2019-05-09T14:04:09.737Z,40.99
2019-05-09T14:06:40.426Z,41.27
2019-05-09T14:09:10.689Z,40.39
2019-05-09T14:11:39.690Z,40.38
2019-05-09T14:14:08.471Z,40.70
2019-05-09T14:16:38.988Z,41.05
2019-05-09T14:19:26.212Z,42.22
2019-05-09T14:21:38.347Z,42.92
2019-05-09T14:24:15.194Z,44.38
2019-05-09T14:26:37.742Z,45.28
2019-05-09T14:29:06.448Z,44.88
2019-05-09T14:31:35.194Z,44.81
2019-05-09T14:34:03.854Z,44.82
2019-05-09T14:36:32.545Z,48.06
2019-05-09T14:39:01.409Z,50.45
2019-05-09T14:41:30.291Z,50.73
2019-05-09T14:43:59.821Z,50.54
2019-05-09T14:46:33.752Z,49.92
2019-05-09T14:48:59.909Z,47.06
2019-05-09T14:51:28.700Z,48.85
2019-05-09T14:53:59.466Z,52.64
2019-05-09T14:56:28.137Z,53.70
2019-05-09T14:58:58.059Z,53.71
2019-05-09T15:01:28.838Z,53.90
2019-05-09T15:03:58.640Z,54.22
2019-05-09T15:06:28.320Z,55.84
2019-05-09T15:08:58.184Z,56.55
2019-05-09T15:11:28.268Z,57.32
2019-05-09T15:13:58.438Z,59.32
2019-05-09T15:16:28.200Z,60.17
2019-05-09T15:18:58.353Z,60.66
2019-05-09T15:21:27.439Z,60.58
2019-05-09T15:23:58.467Z,61.11
2019-05-09T15:26:27.551Z,61.01
2019-05-09T15:28:57.821Z,61.76
2019-05-09T15:31:28.622Z,62.85
2019-05-09T15:33:57.315Z,63.50
2019-05-09T15:36:26.014Z,64.47
2019-05-09T15:38:54.691Z,65.13
2019-05-09T15:41:23.388Z,65.63
2019-05-09T15:43:52.067Z,65.39
2019-05-09T15:46:27.717Z,66.47
2019-05-09T15:48:55.667Z,66.79
2019-05-09T15:51:24.385Z,66.12
2019-05-09T15:53:53.078Z,67.11
2019-05-09T15:56:21.858Z,66.96
2019-05-09T15:58:50.564Z,67.97
2019-05-09T16:01:19.233Z,68.46
2019-05-09T16:03:48.616Z,68.01
2019-05-09T16:06:19.755Z,66.99
2019-05-09T16:08:48.042Z,67.61
2019-05-09T16:11:18.047Z,69.31
2019-05-09T16:13:48.010Z,68.35
2019-05-09T16:16:17.623Z,67.67
2019-05-09T16:18:48.604Z,68.23
2019-05-09T16:21:16.929Z,68.29
2019-05-09T16:23:45.622Z,69.12
2019-05-09T16:26:14.401Z,71.00
2019-05-09T16:28:43.160Z,70.29
2019-05-09T16:31:11.931Z,70.88
2019-05-09T16:33:40.711Z,70.08
2019-05-09T16:36:09.386Z,70.05
2019-05-09T16:38:45.717Z,73.11
2019-05-09T16:41:08.581Z,72.49
2019-05-09T16:43:39.175Z,73.80
2019-05-09T16:46:07.732Z,72.08
2019-05-09T16:48:36.366Z,72.40
2019-05-09T16:51:07.896Z,74.29
2019-05-09T16:53:36.811Z,76.52
2019-05-09T16:56:08.052Z,75.98
2019-05-09T16:58:37.929Z,75.30
2019-05-09T17:01:08.309Z,78.41
2019-05-09T17:03:37.100Z,79.08
2019-05-09T17:06:07.686Z,75.68
2019-05-09T17:08:38.437Z,77.03
2019-05-09T17:11:07.730Z,75.86
2019-05-09T17:13:36.445Z,75.31
2019-05-09T17:16:07.577Z,76.27
2019-05-09T17:18:38.153Z,78.54
2019-05-09T17:21:18.326Z,79.09
2019-05-09T17:23:38.967Z,78.70
2019-05-09T17:26:08.356Z,77.94
2019-05-09T17:28:37.678Z,79.21
2019-05-09T17:31:08.643Z,80.11
2019-05-09T17:33:37.906Z,79.38
2019-05-09T17:36:06.754Z,79.71
2019-05-09T17:38:35.466Z,80.08
2019-05-09T17:41:04.267Z,80.13
2019-05-09T17:43:32.966Z,81.19
2019-05-09T17:46:01.640Z,81.65
2019-05-09T17:48:30.331Z,80.94
2019-05-09T17:50:59.007Z,80.59
2019-05-09T17:53:29.218Z,81.64
2019-05-09T17:55:58.756Z,81.83
2019-05-09T17:58:32.904Z,82.66
2019-05-09T18:00:57.959Z,83.00
2019-05-09T18:03:28.894Z,83.72
2019-05-09T18:05:57.700Z,83.90
2019-05-09T18:08:28.387Z,83.35
2019-05-09T18:10:58.312Z,83.96
2019-05-09T18:13:30.063Z,83.68
2019-05-09T18:15:57.944Z,83.88
2019-05-09T18:18:28.437Z,83.84
2019-05-09T18:20:57.992Z,84.04
2019-05-09T18:23:28.372Z,83.95
2019-05-09T18:25:58.503Z,83.38
2019-05-09T18:28:29.287Z,84.13
2019-05-09T18:30:58.490Z,83.76
2019-05-09T18:33:28.972Z,84.40
2019-05-09T18:35:57.763Z,83.98
2019-05-09T18:38:32.346Z,83.40
2019-05-09T18:41:01.037Z,83.92
2019-05-09T18:43:29.726Z,83.07
2019-05-09T18:45:58.513Z,82.02
2019-05-09T18:48:27.930Z,81.77
2019-05-09T18:50:56.859Z,81.81
2019-05-09T18:53:25.546Z,81.82
2019-05-09T18:55:54.227Z,82.42
2019-05-09T18:58:22.913Z,81.22
2019-05-09T19:00:53.142Z,81.66
2019-05-09T19:03:21.886Z,81.83
2019-05-09T19:05:50.539Z,81.75
2019-05-09T19:08:19.360Z,82.05
2019-05-09T19:10:51.949Z,82.57
2019-05-09T19:13:18.541Z,82.23
2019-05-09T19:15:58.305Z,82.69
2019-05-09T19:18:26.799Z,82.81
2019-05-09T19:20:57.050Z,82.66
2019-05-09T19:23:25.773Z,82.61
2019-05-09T19:25:54.464Z,82.79
2019-05-09T19:28:24.343Z,83.78
2019-05-09T19:30:53.142Z,83.41
2019-05-09T19:33:21.831Z,82.47
2019-05-09T19:35:50.583Z,82.99
2019-05-09T19:38:19.278Z,82.06
2019-05-09T19:40:47.977Z,82.56
2019-05-09T19:43:16.703Z,83.39
2019-05-09T19:45:45.404Z,83.36
2019-05-09T19:48:14.079Z,83.03
2019-05-09T19:50:42.763Z,82.98
2019-05-09T19:53:11.434Z,84.14
2019-05-09T19:55:40.156Z,83.93
2019-05-09T19:58:08.903Z,83.36
2019-05-09T20:00:37.689Z,83.76
2019-05-09T20:03:06.442Z,84.23
2019-05-09T20:05:35.122Z,84.59
2019-05-09T20:08:03.834Z,85.35
2019-05-09T20:10:50.182Z,84.85
2019-05-09T20:13:20.459Z,83.76
2019-05-09T20:15:49.198Z,83.98
2019-05-09T20:18:17.890Z,84.10
2019-05-09T20:20:46.642Z,84.42
2019-05-09T20:23:15.349Z,84.15
2019-05-09T20:25:44.063Z,84.21
2019-05-09T20:28:12.757Z,84.29
2019-05-09T20:30:41.424Z,85.14
2019-05-09T20:33:10.130Z,84.29
2019-05-09T20:35:38.817Z,84.58
2019-05-09T20:38:07.903Z,84.89
2019-05-09T20:40:37.120Z,84.79
2019-05-09T20:43:05.989Z,85.28
2019-05-09T20:45:34.852Z,85.43
2019-05-09T20:48:04.423Z,85.29
2019-05-09T20:50:33.288Z,85.59
2019-05-09T20:53:09.449Z,85.45
2019-05-09T20:55:32.794Z,84.59
2019-05-09T20:58:01.743Z,85.13
2019-05-09T21:00:30.706Z,85.26
2019-05-09T21:02:59.586Z,85.99
2019-05-09T21:05:28.468Z,86.20
2019-05-09T21:07:57.490Z,86.22
2019-05-09T21:10:26.358Z,86.00
2019-05-09T21:12:55.242Z,86.27
2019-05-09T21:15:24.237Z,86.17
2019-05-09T21:17:53.072Z,86.19
2019-05-09T21:20:22.376Z,86.42
2019-05-09T21:22:51.237Z,86.45
2019-05-09T21:25:20.116Z,86.83
2019-05-09T21:27:49.007Z,85.59
2019-05-09T21:30:18.068Z,85.72
2019-05-09T21:32:46.926Z,86.17
2019-05-09T21:35:15.620Z,86.25
2019-05-09T21:37:44.295Z,86.45
2019-05-09T21:40:13.124Z,86.57
2019-05-09T21:42:41.974Z,86.35
2019-05-09T21:45:10.665Z,85.79
2019-05-09T21:47:39.508Z,85.44
2019-05-09T21:50:08.476Z,85.34
2019-05-09T21:52:37.222Z,84.06
2019-05-09T21:55:05.922Z,84.73
2019-05-09T21:57:34.633Z,84.86
2019-05-09T22:00:07.342Z,84.71
2019-05-09T22:02:35.669Z,83.87
2019-05-09T22:05:06.635Z,84.65
2019-05-09T22:07:35.360Z,84.81
2019-05-09T22:10:06.368Z,84.17
2019-05-09T22:12:35.053Z,84.35
2019-05-09T22:15:05.137Z,84.67
2019-05-09T22:17:40.217Z,83.89
2019-05-09T22:20:14.537Z,84.74
2019-05-09T22:22:43.663Z,85.96
2019-05-09T22:25:13.523Z,85.28
2019-05-09T22:27:42.189Z,85.86
2019-05-09T22:30:13.833Z,85.51
2019-05-09T22:32:42.599Z,84.95
2019-05-09T22:35:11.781Z,84.42
2019-05-09T22:37:40.462Z,85.52
2019-05-09T22:40:10.042Z,86.18
2019-05-09T22:42:38.731Z,86.06
2019-05-09T22:45:09.161Z,86.49
2019-05-09T22:47:37.956Z,86.86
2019-05-09T22:50:07.510Z,86.70
2019-05-09T22:52:36.184Z,86.33
2019-05-09T22:55:06.378Z,86.41
2019-05-09T22:57:35.055Z,87.19
2019-05-09T23:00:04.520Z,87.72
2019-05-09T23:02:33.188Z,87.24
2019-05-09T23:05:01.890Z,87.82
2019-05-09T23:07:30.576Z,87.73
2019-05-09T23:09:59.305Z,87.61
2019-05-09T23:12:28.002Z,87.69
2019-05-09T23:14:56.698Z,88.33
2019-05-09T23:17:25.372Z,88.23
2019-05-09T23:19:54.064Z,87.98
2019-05-09T23:22:24.356Z,87.39
2019-05-09T23:24:53.062Z,87.87
2019-05-09T23:27:21.733Z,88.31
2019-05-09T23:29:50.435Z,87.77
2019-05-09T23:32:29.715Z,86.87
2019-05-09T23:34:58.389Z,87.32
2019-05-09T23:37:27.095Z,87.13
2019-05-09T23:39:57.277Z,87.99
2019-05-09T23:42:26.035Z,88.07
2019-05-09T23:44:54.718Z,86.75
2019-05-09T23:47:23.498Z,86.77
2019-05-09T23:49:52.191Z,86.48
2019-05-09T23:52:20.960Z,86.01
2019-05-09T23:55:07.257Z,86.86
2019-05-09T23:57:53.557Z,85.61
